sensor_id;sensor_type;location;lat;lon;timestamp;P1;durP1;ratioP1;P2;durP2;ratioP2
58752;SDS011;44525;46.052;13.610;2022-07-23T00:01:56;16.40;;;13.65;;
58752;SDS011;44525;46.052;13.610;2022-07-23T00:04:22;20.30;;;14.45;;
58752;SDS011;44525;46.052;13.610;2022-07-23T00:06:47;18.10;;;14.75;;
58752;SDS011;44525;46.052;13.610;2022-07-23T00:09:13;19.73;;;14.25;;
58752;SDS011;44525;46.052;13.610;2022-07-23T00:11:38;21.17;;;13.93;;
58752;SDS011;44525;46.052;13.610;2022-07-23T00:14:04;18.30;;;13.57;;
58752;SDS011;44525;46.052;13.610;2022-07-23T00:16:30;17.45;;;13.90;;
58752;SDS011;44525;46.052;13.610;2022-07-23T00:18:55;19.67;;;13.88;;
58752;SDS011;44525;46.052;13.610;2022-07-23T00:21:21;18.30;;;13.25;;
58752;SDS011;44525;46.052;13.610;2022-07-23T00:23:46;18.20;;;13.18;;
58752;SDS011;44525;46.052;13.610;2022-07-23T00:26:12;17.48;;;14.25;;
58752;SDS011;44525;46.052;13.610;2022-07-23T00:28:37;22.85;;;13.98;;
58752;SDS011;44525;46.052;13.610;2022-07-23T00:31:03;19.35;;;15.13;;
58752;SDS011;44525;46.052;13.610;2022-07-23T00:33:28;16.65;;;14.10;;
58752;SDS011;44525;46.052;13.610;2022-07-23T00:35:54;18.10;;;13.88;;
58752;SDS011;44525;46.052;13.610;2022-07-23T00:38:19;17.85;;;14.63;;
58752;SDS011;44525;46.052;13.610;2022-07-23T00:40:45;16.48;;;13.63;;
58752;SDS011;44525;46.052;13.610;2022-07-23T00:43:11;18.35;;;13.88;;
58752;SDS011;44525;46.052;13.610;2022-07-23T00:45:36;19.85;;;14.45;;
58752;SDS011;44525;46.052;13.610;2022-07-23T00:48:02;16.88;;;14.23;;
58752;SDS011;44525;46.052;13.610;2022-07-23T00:50:28;18.48;;;14.13;;
58752;SDS011;44525;46.052;13.610;2022-07-23T00:52:54;18.80;;;14.65;;
58752;SDS011;44525;46.052;13.610;2022-07-23T00:55:20;19.08;;;14.98;;
58752;SDS011;44525;46.052;13.610;2022-07-23T00:57:46;17.55;;;13.57;;
58752;SDS011;44525;46.052;13.610;2022-07-23T01:00:12;17.52;;;14.15;;
58752;SDS011;44525;46.052;13.610;2022-07-23T01:02:40;19.13;;;14.30;;
58752;SDS011;44525;46.052;13.610;2022-07-23T01:05:06;16.67;;;13.85;;
58752;SDS011;44525;46.052;13.610;2022-07-23T01:07:32;16.92;;;14.35;;
58752;SDS011;44525;46.052;13.610;2022-07-23T01:09:58;19.23;;;13.80;;
58752;SDS011;44525;46.052;13.610;2022-07-23T01:12:24;16.92;;;13.55;;
58752;SDS011;44525;46.052;13.610;2022-07-23T01:14:53;18.92;;;14.15;;
58752;SDS011;44525;46.052;13.610;2022-07-23T01:17:21;17.67;;;14.20;;
58752;SDS011;44525;46.052;13.610;2022-07-23T01:19:47;21.20;;;14.40;;
58752;SDS011;44525;46.052;13.610;2022-07-23T01:22:13;17.83;;;12.93;;
58752;SDS011;44525;46.052;13.610;2022-07-23T01:24:42;17.55;;;14.25;;
58752;SDS011;44525;46.052;13.610;2022-07-23T01:27:08;18.52;;;13.80;;
58752;SDS011;44525;46.052;13.610;2022-07-23T01:29:33;18.33;;;13.93;;
58752;SDS011;44525;46.052;13.610;2022-07-23T01:31:59;21.23;;;14.82;;
58752;SDS011;44525;46.052;13.610;2022-07-23T01:34:24;19.73;;;15.00;;
58752;SDS011;44525;46.052;13.610;2022-07-23T01:36:50;19.17;;;15.05;;
58752;SDS011;44525;46.052;13.610;2022-07-23T01:39:15;17.67;;;14.63;;
58752;SDS011;44525;46.052;13.610;2022-07-23T01:41:41;18.65;;;15.05;;
58752;SDS011;44525;46.052;13.610;2022-07-23T01:44:06;18.63;;;15.18;;
58752;SDS011;44525;46.052;13.610;2022-07-23T01:46:32;20.02;;;14.02;;
58752;SDS011;44525;46.052;13.610;2022-07-23T01:48:57;17.15;;;14.30;;
58752;SDS011;44525;46.052;13.610;2022-07-23T01:51:23;19.80;;;15.57;;
58752;SDS011;44525;46.052;13.610;2022-07-23T01:53:48;19.00;;;14.43;;
58752;SDS011;44525;46.052;13.610;2022-07-23T01:56:14;20.92;;;15.35;;
58752;SDS011;44525;46.052;13.610;2022-07-23T01:58:40;22.13;;;16.08;;
58752;SDS011;44525;46.052;13.610;2022-07-23T02:01:06;19.23;;;15.30;;
58752;SDS011;44525;46.052;13.610;2022-07-23T02:03:31;20.60;;;15.60;;
58752;SDS011;44525;46.052;13.610;2022-07-23T02:05:57;18.63;;;14.40;;
58752;SDS011;44525;46.052;13.610;2022-07-23T02:08:22;19.42;;;14.43;;
58752;SDS011;44525;46.052;13.610;2022-07-23T02:10:48;18.08;;;15.60;;
58752;SDS011;44525;46.052;13.610;2022-07-23T02:13:16;18.48;;;14.55;;
58752;SDS011;44525;46.052;13.610;2022-07-23T02:15:41;17.95;;;15.23;;
58752;SDS011;44525;46.052;13.610;2022-07-23T02:18:07;19.35;;;15.40;;
58752;SDS011;44525;46.052;13.610;2022-07-23T02:20:33;17.48;;;14.88;;
58752;SDS011;44525;46.052;13.610;2022-07-23T02:22:58;21.98;;;14.93;;
58752;SDS011;44525;46.052;13.610;2022-07-23T02:25:24;18.30;;;14.63;;
58752;SDS011;44525;46.052;13.610;2022-07-23T02:27:49;17.27;;;14.82;;
58752;SDS011;44525;46.052;13.610;2022-07-23T02:30:15;20.92;;;14.88;;
58752;SDS011;44525;46.052;13.610;2022-07-23T02:32:40;20.00;;;14.30;;
58752;SDS011;44525;46.052;13.610;2022-07-23T02:35:06;19.83;;;14.45;;
58752;SDS011;44525;46.052;13.610;2022-07-23T02:37:32;21.52;;;14.27;;
58752;SDS011;44525;46.052;13.610;2022-07-23T02:39:58;18.33;;;14.75;;
58752;SDS011;44525;46.052;13.610;2022-07-23T02:42:23;20.25;;;15.02;;
58752;SDS011;44525;46.052;13.610;2022-07-23T02:44:49;17.40;;;14.52;;
58752;SDS011;44525;46.052;13.610;2022-07-23T02:47:16;17.83;;;14.68;;
58752;SDS011;44525;46.052;13.610;2022-07-23T02:49:41;20.98;;;14.90;;
58752;SDS011;44525;46.052;13.610;2022-07-23T02:52:07;18.42;;;15.05;;
58752;SDS011;44525;46.052;13.610;2022-07-23T02:54:35;20.55;;;14.60;;
58752;SDS011;44525;46.052;13.610;2022-07-23T02:57:01;20.08;;;16.10;;
58752;SDS011;44525;46.052;13.610;2022-07-23T02:59:27;20.05;;;15.30;;
58752;SDS011;44525;46.052;13.610;2022-07-23T03:01:52;18.02;;;14.93;;
58752;SDS011;44525;46.052;13.610;2022-07-23T03:04:17;21.00;;;15.13;;
58752;SDS011;44525;46.052;13.610;2022-07-23T03:06:43;17.35;;;14.70;;
58752;SDS011;44525;46.052;13.610;2022-07-23T03:09:08;20.55;;;15.77;;
58752;SDS011;44525;46.052;13.610;2022-07-23T03:11:34;21.05;;;15.30;;
58752;SDS011;44525;46.052;13.610;2022-07-23T03:14:00;19.33;;;15.10;;
58752;SDS011;44525;46.052;13.610;2022-07-23T03:16:25;19.88;;;14.98;;
58752;SDS011;44525;46.052;13.610;2022-07-23T03:18:51;19.55;;;14.73;;
58752;SDS011;44525;46.052;13.610;2022-07-23T03:21:16;22.38;;;15.75;;
58752;SDS011;44525;46.052;13.610;2022-07-23T03:23:42;18.73;;;14.43;;
58752;SDS011;44525;46.052;13.610;2022-07-23T03:26:07;20.90;;;15.80;;
58752;SDS011;44525;46.052;13.610;2022-07-23T03:28:33;19.38;;;14.90;;
58752;SDS011;44525;46.052;13.610;2022-07-23T03:30:58;19.70;;;15.88;;
58752;SDS011;44525;46.052;13.610;2022-07-23T03:33:24;19.33;;;16.20;;
58752;SDS011;44525;46.052;13.610;2022-07-23T03:35:49;21.52;;;15.27;;
58752;SDS011;44525;46.052;13.610;2022-07-23T03:38:15;20.27;;;15.20;;
58752;SDS011;44525;46.052;13.610;2022-07-23T03:40:41;20.45;;;15.52;;
58752;SDS011;44525;46.052;13.610;2022-07-23T03:43:06;20.02;;;15.52;;
58752;SDS011;44525;46.052;13.610;2022-07-23T03:45:32;19.80;;;15.48;;
58752;SDS011;44525;46.052;13.610;2022-07-23T03:47:58;20.00;;;15.00;;
58752;SDS011;44525;46.052;13.610;2022-07-23T03:50:24;20.05;;;16.27;;
58752;SDS011;44525;46.052;13.610;2022-07-23T03:52:50;19.30;;;15.30;;
58752;SDS011;44525;46.052;13.610;2022-07-23T03:55:15;19.48;;;15.25;;
58752;SDS011;44525;46.052;13.610;2022-07-23T03:57:41;17.70;;;15.23;;
58752;SDS011;44525;46.052;13.610;2022-07-23T04:00:07;21.98;;;16.35;;
58752;SDS011;44525;46.052;13.610;2022-07-23T04:02:37;18.88;;;15.18;;
58752;SDS011;44525;46.052;13.610;2022-07-23T04:05:03;20.90;;;15.48;;
58752;SDS011;44525;46.052;13.610;2022-07-23T04:07:29;24.50;;;16.42;;
58752;SDS011;44525;46.052;13.610;2022-07-23T04:09:55;19.92;;;15.50;;
58752;SDS011;44525;46.052;13.610;2022-07-23T04:12:20;17.80;;;14.57;;
58752;SDS011;44525;46.052;13.610;2022-07-23T04:14:46;21.92;;;16.50;;
58752;SDS011;44525;46.052;13.610;2022-07-23T04:17:12;20.58;;;16.15;;
58752;SDS011;44525;46.052;13.610;2022-07-23T04:19:38;21.80;;;16.30;;
58752;SDS011;44525;46.052;13.610;2022-07-23T04:22:05;24.73;;;16.50;;
58752;SDS011;44525;46.052;13.610;2022-07-23T04:24:31;19.13;;;16.13;;
58752;SDS011;44525;46.052;13.610;2022-07-23T04:26:57;18.52;;;14.93;;
58752;SDS011;44525;46.052;13.610;2022-07-23T04:29:23;20.58;;;15.80;;
58752;SDS011;44525;46.052;13.610;2022-07-23T04:31:48;19.20;;;16.50;;
58752;SDS011;44525;46.052;13.610;2022-07-23T04:34:14;21.23;;;16.15;;
58752;SDS011;44525;46.052;13.610;2022-07-23T04:36:39;20.70;;;16.23;;
58752;SDS011;44525;46.052;13.610;2022-07-23T04:39:05;20.33;;;15.55;;
58752;SDS011;44525;46.052;13.610;2022-07-23T04:41:30;19.55;;;16.58;;
58752;SDS011;44525;46.052;13.610;2022-07-23T04:43:56;23.52;;;16.60;;
58752;SDS011;44525;46.052;13.610;2022-07-23T04:46:21;19.08;;;15.30;;
58752;SDS011;44525;46.052;13.610;2022-07-23T04:48:47;25.70;;;16.20;;
58752;SDS011;44525;46.052;13.610;2022-07-23T04:51:12;21.70;;;16.20;;
58752;SDS011;44525;46.052;13.610;2022-07-23T04:53:38;22.15;;;16.30;;
58752;SDS011;44525;46.052;13.610;2022-07-23T04:56:04;20.30;;;14.90;;
58752;SDS011;44525;46.052;13.610;2022-07-23T04:58:29;23.70;;;16.50;;
58752;SDS011;44525;46.052;13.610;2022-07-23T05:00:56;19.60;;;15.98;;
58752;SDS011;44525;46.052;13.610;2022-07-23T05:03:23;23.02;;;15.75;;
58752;SDS011;44525;46.052;13.610;2022-07-23T05:05:48;19.65;;;15.77;;
58752;SDS011;44525;46.052;13.610;2022-07-23T05:08:14;20.20;;;15.48;;
58752;SDS011;44525;46.052;13.610;2022-07-23T05:10:40;21.10;;;16.00;;
58752;SDS011;44525;46.052;13.610;2022-07-23T05:13:06;19.77;;;15.73;;
58752;SDS011;44525;46.052;13.610;2022-07-23T05:15:31;19.05;;;15.35;;
58752;SDS011;44525;46.052;13.610;2022-07-23T05:17:57;17.50;;;14.10;;
58752;SDS011;44525;46.052;13.610;2022-07-23T05:20:22;23.75;;;15.07;;
58752;SDS011;44525;46.052;13.610;2022-07-23T05:22:48;17.77;;;15.32;;
58752;SDS011;44525;46.052;13.610;2022-07-23T05:25:13;18.15;;;14.85;;
58752;SDS011;44525;46.052;13.610;2022-07-23T05:27:39;20.13;;;16.55;;
58752;SDS011;44525;46.052;13.610;2022-07-23T05:30:04;19.25;;;15.57;;
58752;SDS011;44525;46.052;13.610;2022-07-23T05:32:33;23.42;;;16.02;;
58752;SDS011;44525;46.052;13.610;2022-07-23T05:34:59;19.63;;;14.68;;
58752;SDS011;44525;46.052;13.610;2022-07-23T05:37:24;19.50;;;14.68;;
58752;SDS011;44525;46.052;13.610;2022-07-23T05:39:50;17.67;;;14.73;;
58752;SDS011;44525;46.052;13.610;2022-07-23T05:42:15;20.00;;;15.20;;
58752;SDS011;44525;46.052;13.610;2022-07-23T05:44:41;21.83;;;15.48;;
58752;SDS011;44525;46.052;13.610;2022-07-23T05:47:06;17.75;;;14.80;;
58752;SDS011;44525;46.052;13.610;2022-07-23T05:49:32;20.70;;;15.30;;
58752;SDS011;44525;46.052;13.610;2022-07-23T05:51:57;19.45;;;14.98;;
58752;SDS011;44525;46.052;13.610;2022-07-23T05:54:23;18.58;;;15.30;;
58752;SDS011;44525;46.052;13.610;2022-07-23T05:56:49;19.10;;;16.10;;
58752;SDS011;44525;46.052;13.610;2022-07-23T05:59:15;21.23;;;15.27;;
58752;SDS011;44525;46.052;13.610;2022-07-23T06:01:40;25.02;;;15.98;;
58752;SDS011;44525;46.052;13.610;2022-07-23T06:04:06;20.52;;;15.75;;
58752;SDS011;44525;46.052;13.610;2022-07-23T06:06:32;20.77;;;15.77;;
58752;SDS011;44525;46.052;13.610;2022-07-23T06:08:58;19.73;;;15.65;;
58752;SDS011;44525;46.052;13.610;2022-07-23T06:11:24;25.98;;;15.13;;
58752;SDS011;44525;46.052;13.610;2022-07-23T06:13:49;19.10;;;15.35;;
58752;SDS011;44525;46.052;13.610;2022-07-23T06:16:15;22.70;;;15.60;;
58752;SDS011;44525;46.052;13.610;2022-07-23T06:18:40;21.63;;;15.10;;
58752;SDS011;44525;46.052;13.610;2022-07-23T06:21:06;23.27;;;15.27;;
58752;SDS011;44525;46.052;13.610;2022-07-23T06:23:32;20.58;;;16.30;;
58752;SDS011;44525;46.052;13.610;2022-07-23T06:25:58;20.73;;;16.42;;
58752;SDS011;44525;46.052;13.610;2022-07-23T06:28:23;21.35;;;15.88;;
58752;SDS011;44525;46.052;13.610;2022-07-23T06:30:49;20.38;;;16.73;;
58752;SDS011;44525;46.052;13.610;2022-07-23T06:33:14;24.00;;;16.65;;
58752;SDS011;44525;46.052;13.610;2022-07-23T06:35:40;23.50;;;16.10;;
58752;SDS011;44525;46.052;13.610;2022-07-23T06:38:05;19.42;;;15.10;;
58752;SDS011;44525;46.052;13.610;2022-07-23T06:40:31;21.70;;;15.73;;
58752;SDS011;44525;46.052;13.610;2022-07-23T06:42:56;26.92;;;16.25;;
58752;SDS011;44525;46.052;13.610;2022-07-23T06:45:22;19.20;;;16.58;;
58752;SDS011;44525;46.052;13.610;2022-07-23T06:47:48;19.73;;;16.48;;
58752;SDS011;44525;46.052;13.610;2022-07-23T06:50:14;20.20;;;15.45;;
58752;SDS011;44525;46.052;13.610;2022-07-23T06:52:39;21.70;;;15.40;;
58752;SDS011;44525;46.052;13.610;2022-07-23T06:55:05;19.08;;;14.75;;
58752;SDS011;44525;46.052;13.610;2022-07-23T06:57:31;18.80;;;14.95;;
58752;SDS011;44525;46.052;13.610;2022-07-23T06:59:56;19.13;;;15.45;;
58752;SDS011;44525;46.052;13.610;2022-07-23T07:02:22;22.00;;;14.85;;
58752;SDS011;44525;46.052;13.610;2022-07-23T07:04:48;19.95;;;15.30;;
58752;SDS011;44525;46.052;13.610;2022-07-23T07:07:14;17.60;;;14.00;;
58752;SDS011;44525;46.052;13.610;2022-07-23T07:09:40;20.55;;;15.13;;
58752;SDS011;44525;46.052;13.610;2022-07-23T07:12:05;16.80;;;14.02;;
58752;SDS011;44525;46.052;13.610;2022-07-23T07:14:31;20.88;;;14.75;;
58752;SDS011;44525;46.052;13.610;2022-07-23T07:16:56;19.08;;;14.60;;
58752;SDS011;44525;46.052;13.610;2022-07-23T07:19:22;21.48;;;15.32;;
58752;SDS011;44525;46.052;13.610;2022-07-23T07:21:47;18.15;;;14.73;;
58752;SDS011;44525;46.052;13.610;2022-07-23T07:24:13;18.92;;;14.50;;
58752;SDS011;44525;46.052;13.610;2022-07-23T07:26:38;20.08;;;14.88;;
58752;SDS011;44525;46.052;13.610;2022-07-23T07:29:05;17.25;;;13.90;;
58752;SDS011;44525;46.052;13.610;2022-07-23T07:31:31;22.75;;;15.52;;
58752;SDS011;44525;46.052;13.610;2022-07-23T07:33:57;18.45;;;14.43;;
58752;SDS011;44525;46.052;13.610;2022-07-23T07:36:23;19.40;;;14.52;;
58752;SDS011;44525;46.052;13.610;2022-07-23T07:38:49;18.40;;;14.77;;
58752;SDS011;44525;46.052;13.610;2022-07-23T07:41:14;20.75;;;14.63;;
58752;SDS011;44525;46.052;13.610;2022-07-23T07:43:40;19.95;;;15.13;;
58752;SDS011;44525;46.052;13.610;2022-07-23T07:46:06;18.98;;;14.65;;
58752;SDS011;44525;46.052;13.610;2022-07-23T07:48:35;20.65;;;14.60;;
58752;SDS011;44525;46.052;13.610;2022-07-23T07:51:01;18.52;;;15.10;;
58752;SDS011;44525;46.052;13.610;2022-07-23T07:53:28;17.67;;;15.15;;
58752;SDS011;44525;46.052;13.610;2022-07-23T07:55:53;19.95;;;15.10;;
58752;SDS011;44525;46.052;13.610;2022-07-23T07:58:19;19.38;;;14.65;;
58752;SDS011;44525;46.052;13.610;2022-07-23T08:00:44;21.55;;;15.43;;
58752;SDS011;44525;46.052;13.610;2022-07-23T08:03:10;20.23;;;15.23;;
58752;SDS011;44525;46.052;13.610;2022-07-23T08:05:35;17.48;;;13.90;;
58752;SDS011;44525;46.052;13.610;2022-07-23T08:08:01;19.92;;;14.38;;
58752;SDS011;44525;46.052;13.610;2022-07-23T08:10:27;18.73;;;14.32;;
58752;SDS011;44525;46.052;13.610;2022-07-23T08:12:55;19.38;;;14.45;;
58752;SDS011;44525;46.052;13.610;2022-07-23T08:15:22;18.98;;;14.02;;
58752;SDS011;44525;46.052;13.610;2022-07-23T08:17:48;19.10;;;14.52;;
58752;SDS011;44525;46.052;13.610;2022-07-23T08:20:15;18.15;;;13.40;;
58752;SDS011;44525;46.052;13.610;2022-07-23T08:22:43;15.73;;;13.90;;
58752;SDS011;44525;46.052;13.610;2022-07-23T08:25:19;17.35;;;13.70;;
58752;SDS011;44525;46.052;13.610;2022-07-23T08:28:03;20.50;;;13.98;;
58752;SDS011;44525;46.052;13.610;2022-07-23T08:30:30;17.67;;;14.48;;
58752;SDS011;44525;46.052;13.610;2022-07-23T08:33:00;16.27;;;13.88;;
58752;SDS011;44525;46.052;13.610;2022-07-23T08:35:31;17.48;;;13.90;;
58752;SDS011;44525;46.052;13.610;2022-07-23T08:37:59;18.73;;;13.68;;
58752;SDS011;44525;46.052;13.610;2022-07-23T08:40:26;19.75;;;14.25;;
58752;SDS011;44525;46.052;13.610;2022-07-23T08:42:53;20.30;;;14.70;;
58752;SDS011;44525;46.052;13.610;2022-07-23T08:45:20;19.30;;;13.80;;
58752;SDS011;44525;46.052;13.610;2022-07-23T08:47:50;16.67;;;13.63;;
58752;SDS011;44525;46.052;13.610;2022-07-23T08:50:17;17.85;;;14.50;;
58752;SDS011;44525;46.052;13.610;2022-07-23T08:52:43;24.75;;;14.02;;
58752;SDS011;44525;46.052;13.610;2022-07-23T08:55:09;18.88;;;13.95;;
58752;SDS011;44525;46.052;13.610;2022-07-23T08:57:35;17.65;;;15.57;;
58752;SDS011;44525;46.052;13.610;2022-07-23T09:00:00;17.85;;;14.93;;
58752;SDS011;44525;46.052;13.610;2022-07-23T09:02:26;22.08;;;15.50;;
58752;SDS011;44525;46.052;13.610;2022-07-23T09:04:52;18.23;;;15.45;;
58752;SDS011;44525;46.052;13.610;2022-07-23T09:07:17;19.48;;;15.60;;
58752;SDS011;44525;46.052;13.610;2022-07-23T09:09:43;21.85;;;16.02;;
58752;SDS011;44525;46.052;13.610;2022-07-23T09:12:09;22.48;;;16.80;;
58752;SDS011;44525;46.052;13.610;2022-07-23T09:14:42;21.52;;;16.85;;
58752;SDS011;44525;46.052;13.610;2022-07-23T09:17:18;21.27;;;17.25;;
58752;SDS011;44525;46.052;13.610;2022-07-23T09:19:44;18.73;;;16.48;;
58752;SDS011;44525;46.052;13.610;2022-07-23T09:22:21;19.40;;;17.35;;
58752;SDS011;44525;46.052;13.610;2022-07-23T09:25:03;17.48;;;15.52;;
58752;SDS011;44525;46.052;13.610;2022-07-23T09:27:52;21.42;;;14.40;;
58752;SDS011;44525;46.052;13.610;2022-07-23T09:30:18;17.63;;;14.90;;
58752;SDS011;44525;46.052;13.610;2022-07-23T09:32:56;18.95;;;14.80;;
58752;SDS011;44525;46.052;13.610;2022-07-23T09:35:43;15.13;;;13.52;;
58752;SDS011;44525;46.052;13.610;2022-07-23T09:38:26;16.70;;;13.93;;
58752;SDS011;44525;46.052;13.610;2022-07-23T09:41:07;16.90;;;15.10;;
58752;SDS011;44525;46.052;13.610;2022-07-23T09:43:36;15.73;;;13.88;;
58752;SDS011;44525;46.052;13.610;2022-07-23T09:48:53;16.02;;;13.48;;
58752;SDS011;44525;46.052;13.610;2022-07-23T09:51:22;16.42;;;13.95;;
58752;SDS011;44525;46.052;13.610;2022-07-23T09:53:55;19.90;;;14.55;;
58752;SDS011;44525;46.052;13.610;2022-07-23T09:56:20;17.73;;;14.45;;
58752;SDS011;44525;46.052;13.610;2022-07-23T09:58:47;18.58;;;14.88;;
58752;SDS011;44525;46.052;13.610;2022-07-23T10:01:15;17.13;;;14.43;;
58752;SDS011;44525;46.052;13.610;2022-07-23T10:03:42;16.08;;;14.27;;
58752;SDS011;44525;46.052;13.610;2022-07-23T10:06:10;12.70;;;10.68;;
58752;SDS011;44525;46.052;13.610;2022-07-23T10:08:41;12.55;;;10.68;;
58752;SDS011;44525;46.052;13.610;2022-07-23T10:11:09;13.82;;;10.70;;
58752;SDS011;44525;46.052;13.610;2022-07-23T10:13:37;16.02;;;13.32;;
58752;SDS011;44525;46.052;13.610;2022-07-23T10:16:12;17.20;;;13.50;;
58752;SDS011;44525;46.052;13.610;2022-07-23T10:18:38;15.43;;;13.40;;
58752;SDS011;44525;46.052;13.610;2022-07-23T10:21:05;11.63;;;9.90;;
58752;SDS011;44525;46.052;13.610;2022-07-23T10:23:35;15.07;;;10.40;;
58752;SDS011;44525;46.052;13.610;2022-07-23T10:26:35;14.20;;;11.13;;
58752;SDS011;44525;46.052;13.610;2022-07-23T10:39:41;8.00;;;7.15;;
58752;SDS011;44525;46.052;13.610;2022-07-23T10:42:10;9.02;;;8.02;;
58752;SDS011;44525;46.052;13.610;2022-07-23T10:44:54;10.00;;;7.50;;
58752;SDS011;44525;46.052;13.610;2022-07-23T10:47:21;10.32;;;8.15;;
58752;SDS011;44525;46.052;13.610;2022-07-23T10:57:56;9.80;;;7.47;;
58752;SDS011;44525;46.052;13.610;2022-07-23T11:00:26;11.60;;;7.55;;
58752;SDS011;44525;46.052;13.610;2022-07-23T11:02:56;11.13;;;9.73;;
58752;SDS011;44525;46.052;13.610;2022-07-23T11:05:47;10.43;;;9.27;;
58752;SDS011;44525;46.052;13.610;2022-07-23T11:08:13;11.98;;;8.25;;
58752;SDS011;44525;46.052;13.610;2022-07-23T11:10:55;12.60;;;8.60;;
58752;SDS011;44525;46.052;13.610;2022-07-23T11:13:38;12.32;;;9.90;;
58752;SDS011;44525;46.052;13.610;2022-07-23T11:32:22;9.77;;;8.48;;
58752;SDS011;44525;46.052;13.610;2022-07-23T11:34:50;10.45;;;8.35;;
58752;SDS011;44525;46.052;13.610;2022-07-23T11:40:04;11.35;;;9.25;;
58752;SDS011;44525;46.052;13.610;2022-07-23T11:42:34;12.32;;;10.15;;
58752;SDS011;44525;46.052;13.610;2022-07-23T11:45:00;11.65;;;9.10;;
58752;SDS011;44525;46.052;13.610;2022-07-23T11:47:26;9.48;;;7.63;;
58752;SDS011;44525;46.052;13.610;2022-07-23T11:49:56;13.98;;;11.20;;
58752;SDS011;44525;46.052;13.610;2022-07-23T11:52:23;13.13;;;11.73;;
58752;SDS011;44525;46.052;13.610;2022-07-23T11:54:53;14.35;;;11.52;;
58752;SDS011;44525;46.052;13.610;2022-07-23T11:57:24;16.33;;;14.27;;
58752;SDS011;44525;46.052;13.610;2022-07-23T12:00:07;19.48;;;16.55;;
58752;SDS011;44525;46.052;13.610;2022-07-23T12:02:36;28.45;;;24.90;;
58752;SDS011;44525;46.052;13.610;2022-07-23T12:05:03;29.58;;;26.38;;
58752;SDS011;44525;46.052;13.610;2022-07-23T12:10:12;31.25;;;27.75;;
58752;SDS011;44525;46.052;13.610;2022-07-23T12:15:22;36.72;;;31.50;;
58752;SDS011;44525;46.052;13.610;2022-07-23T12:17:50;37.85;;;33.75;;
58752;SDS011;44525;46.052;13.610;2022-07-23T12:20:27;38.95;;;34.15;;
58752;SDS011;44525;46.052;13.610;2022-07-23T12:22:56;41.58;;;34.35;;
58752;SDS011;44525;46.052;13.610;2022-07-23T12:25:25;38.33;;;32.38;;
58752;SDS011;44525;46.052;13.610;2022-07-23T12:30:42;27.15;;;24.25;;
58752;SDS011;44525;46.052;13.610;2022-07-23T12:33:11;26.85;;;23.88;;
58752;SDS011;44525;46.052;13.610;2022-07-23T12:35:42;29.20;;;26.05;;
58752;SDS011;44525;46.052;13.610;2022-07-23T12:38:11;25.95;;;23.17;;
58752;SDS011;44525;46.052;13.610;2022-07-23T12:43:18;28.50;;;24.95;;
58752;SDS011;44525;46.052;13.610;2022-07-23T12:50:48;23.33;;;20.13;;
58752;SDS011;44525;46.052;13.610;2022-07-23T12:53:15;28.17;;;19.85;;
58752;SDS011;44525;46.052;13.610;2022-07-23T12:55:43;24.65;;;16.80;;
58752;SDS011;44525;46.052;13.610;2022-07-23T12:58:10;20.02;;;16.17;;
58752;SDS011;44525;46.052;13.610;2022-07-23T13:06:33;14.02;;;11.10;;
58752;SDS011;44525;46.052;13.610;2022-07-23T13:09:04;14.57;;;11.05;;
58752;SDS011;44525;46.052;13.610;2022-07-23T13:11:32;16.25;;;11.57;;
58752;SDS011;44525;46.052;13.610;2022-07-23T13:13:59;18.55;;;15.13;;
58752;SDS011;44525;46.052;13.610;2022-07-23T13:16:26;18.25;;;14.23;;
58752;SDS011;44525;46.052;13.610;2022-07-23T13:18:53;15.75;;;14.02;;
58752;SDS011;44525;46.052;13.610;2022-07-23T13:21:19;21.85;;;16.67;;
58752;SDS011;44525;46.052;13.610;2022-07-23T13:23:44;20.10;;;15.95;;
58752;SDS011;44525;46.052;13.610;2022-07-23T13:26:10;19.25;;;15.38;;
58752;SDS011;44525;46.052;13.610;2022-07-23T13:28:35;16.58;;;13.38;;
58752;SDS011;44525;46.052;13.610;2022-07-23T13:31:01;15.32;;;12.85;;
58752;SDS011;44525;46.052;13.610;2022-07-23T13:33:26;11.80;;;10.50;;
58752;SDS011;44525;46.052;13.610;2022-07-23T13:35:52;12.40;;;9.90;;
58752;SDS011;44525;46.052;13.610;2022-07-23T13:38:19;12.10;;;9.13;;
58752;SDS011;44525;46.052;13.610;2022-07-23T13:40:46;12.00;;;9.93;;
58752;SDS011;44525;46.052;13.610;2022-07-23T13:43:13;12.55;;;9.63;;
58752;SDS011;44525;46.052;13.610;2022-07-23T13:45:40;11.25;;;9.68;;
58752;SDS011;44525;46.052;13.610;2022-07-23T13:48:10;14.15;;;11.90;;
58752;SDS011;44525;46.052;13.610;2022-07-23T13:50:37;14.13;;;10.55;;
58752;SDS011;44525;46.052;13.610;2022-07-23T13:53:04;10.18;;;8.50;;
58752;SDS011;44525;46.052;13.610;2022-07-23T13:55:34;14.10;;;7.97;;
58752;SDS011;44525;46.052;13.610;2022-07-23T13:58:01;8.80;;;6.55;;
58752;SDS011;44525;46.052;13.610;2022-07-23T14:00:28;8.90;;;6.65;;
58752;SDS011;44525;46.052;13.610;2022-07-23T14:02:55;8.23;;;6.47;;
58752;SDS011;44525;46.052;13.610;2022-07-23T14:05:22;8.98;;;6.82;;
58752;SDS011;44525;46.052;13.610;2022-07-23T14:07:47;10.23;;;7.03;;
58752;SDS011;44525;46.052;13.610;2022-07-23T14:10:14;9.30;;;7.07;;
58752;SDS011;44525;46.052;13.610;2022-07-23T14:12:42;10.57;;;6.97;;
58752;SDS011;44525;46.052;13.610;2022-07-23T14:15:08;8.52;;;6.80;;
58752;SDS011;44525;46.052;13.610;2022-07-23T14:17:36;11.15;;;8.98;;
58752;SDS011;44525;46.052;13.610;2022-07-23T14:20:04;17.13;;;10.30;;
58752;SDS011;44525;46.052;13.610;2022-07-23T14:22:31;13.20;;;10.25;;
58752;SDS011;44525;46.052;13.610;2022-07-23T14:24:56;12.38;;;10.43;;
58752;SDS011;44525;46.052;13.610;2022-07-23T14:27:25;16.65;;;10.80;;
58752;SDS011;44525;46.052;13.610;2022-07-23T14:29:53;15.18;;;10.35;;
58752;SDS011;44525;46.052;13.610;2022-07-23T14:32:19;12.75;;;10.25;;
58752;SDS011;44525;46.052;13.610;2022-07-23T14:34:45;11.63;;;9.82;;
58752;SDS011;44525;46.052;13.610;2022-07-23T14:37:11;10.48;;;9.30;;
58752;SDS011;44525;46.052;13.610;2022-07-23T14:39:37;11.23;;;9.32;;
58752;SDS011;44525;46.052;13.610;2022-07-23T14:42:04;13.77;;;9.75;;
58752;SDS011;44525;46.052;13.610;2022-07-23T14:44:30;12.23;;;9.88;;
58752;SDS011;44525;46.052;13.610;2022-07-23T14:46:55;15.70;;;9.55;;
58752;SDS011;44525;46.052;13.610;2022-07-23T14:49:21;12.55;;;8.85;;
58752;SDS011;44525;46.052;13.610;2022-07-23T14:51:46;10.88;;;9.15;;
58752;SDS011;44525;46.052;13.610;2022-07-23T14:54:12;9.77;;;8.20;;
58752;SDS011;44525;46.052;13.610;2022-07-23T14:56:39;9.95;;;8.30;;
58752;SDS011;44525;46.052;13.610;2022-07-23T14:59:05;13.82;;;8.25;;
58752;SDS011;44525;46.052;13.610;2022-07-23T15:01:31;9.00;;;6.75;;
58752;SDS011;44525;46.052;13.610;2022-07-23T15:03:57;9.30;;;7.22;;
58752;SDS011;44525;46.052;13.610;2022-07-23T15:06:23;7.50;;;6.38;;
58752;SDS011;44525;46.052;13.610;2022-07-23T15:08:49;8.80;;;6.40;;
58752;SDS011;44525;46.052;13.610;2022-07-23T15:11:15;10.13;;;6.53;;
58752;SDS011;44525;46.052;13.610;2022-07-23T15:13:40;8.82;;;6.50;;